Kavala, Greece
Current Conditions -  °F | °C
As of 2:50 PM on Thursday 27 Nov 2014 (Local Time) from LGKV Reporting Station
Overcast Overcast  
Wind Chill: 39°   Ceiling: 2500
Heat Index: 43°   Visibility: 6mi
Dew Point: 32°   Wind: 7mph
Humidity: 66%   Direction: 40°NE
Pressure: 30.21"   Gusts: NA
Location:  40.94°N, 24.4°E
Report Text: LGKV 271150Z 04006KT 9999 BKN025 OVC070 06/00 Q1023
Loading
Personal Weather Stations






























Interactive Weather Map New forecast layout! Learn more

10-Day Weather Forecast

Advertisements
Track Severe Weather on mobile